메인 페이지
METAR-TAF:

METAR-TAF

공항 :

시안, 중국

시안 셴양 국제공항

위도: 34-26N, 경도: 108-45E, 고도: 479m

현재 날씨관측

예보는 1 시간 0분 전, 00:00시(UTC)에 발표되었습니다.
여러 방향의 바람 2kt
온도 3°C
습도 75%
기압 1023 hPa
시정: 1700m
연무

METAR: ZLXY 180000Z VRB01MPS 1700 HZ NSC 03/M01 Q1023 NOSIG

시각: 09:00 (01:00 UTC)

예보

예보는 5 시간 48분 전, 19:12시(UTC)에 발표되었습니다.
예보 대상 시간: 18일 00시부터 18일 24시까지 (UTC)
6kt
시정: 2400m
박무
전환 중
18일 02시부터 18일 03시까지 (UTC)
시정: 3000m
전환 중
18일 13시부터 18일 14시까지 (UTC)
시정: 2400m
약한비, 박무
일시적
18일 18시부터 18일 24시까지 (UTC)
시정: 1400m
약한눈, 비, 박무

TAF: ZLXY 171912Z 1800/1824 26003MPS 2400 BR NSC TX08/1807Z TN00/1823Z BECMG 1802/1803 3000 BECMG 1813/1814 2400 -RA BR TEMPO 1818/1824 1400 -SNRA BR

4,000개 이상의 공항 관측 자료 및 예보 (METAR 및 TAF 보고).

지도상에서 검색 가능한 기상관측소가 노란 점과 빨간 점으로 표시되어 있습니다.

기상관측소 명을 보려면 표시 위로 마우스를 이동하세요.

날씨 관측과 예보를 보려면 클릭하세요.

지도 변경 : 확대하려면 엑스 표시가 있는 녹색 버튼, 축소하려면 빼기 표시가 있는 녹색 버튼, 다음 페이지의 지도를 보려면 녹색 화살표를 클릭하세요.


METAR-TAF: